sensor_id;sensor_type;location;lat;lon;timestamp;temperature;humidity
9223;DHT22;7557;51.698;3.942;2023-03-15T00:00:35;5.80;99.90
9223;DHT22;7557;51.698;3.942;2023-03-15T00:03:02;5.90;99.90
9223;DHT22;7557;51.698;3.942;2023-03-15T00:05:30;6.00;99.90
9223;DHT22;7557;51.698;3.942;2023-03-15T00:07:57;6.00;99.90
9223;DHT22;7557;51.698;3.942;2023-03-15T00:10:25;6.00;99.90
9223;DHT22;7557;51.698;3.942;2023-03-15T00:12:52;6.00;99.90
9223;DHT22;7557;51.698;3.942;2023-03-15T00:15:20;6.10;99.90
9223;DHT22;7557;51.698;3.942;2023-03-15T00:17:47;6.10;99.90
9223;DHT22;7557;51.698;3.942;2023-03-15T00:20:15;6.10;99.90
9223;DHT22;7557;51.698;3.942;2023-03-15T00:22:43;6.10;99.90
9223;DHT22;7557;51.698;3.942;2023-03-15T00:25:10;6.10;99.90
9223;DHT22;7557;51.698;3.942;2023-03-15T00:27:37;6.10;99.90
9223;DHT22;7557;51.698;3.942;2023-03-15T00:30:06;6.10;99.90
9223;DHT22;7557;51.698;3.942;2023-03-15T00:32:34;6.10;99.90
9223;DHT22;7557;51.698;3.942;2023-03-15T00:35:02;6.10;99.90
9223;DHT22;7557;51.698;3.942;2023-03-15T00:37:30;6.10;99.90
9223;DHT22;7557;51.698;3.942;2023-03-15T00:39:57;6.10;99.90
9223;DHT22;7557;51.698;3.942;2023-03-15T00:42:24;6.10;99.90
9223;DHT22;7557;51.698;3.942;2023-03-15T00:44:52;6.00;99.90
9223;DHT22;7557;51.698;3.942;2023-03-15T00:47:20;6.00;99.90
9223;DHT22;7557;51.698;3.942;2023-03-15T00:50:22;6.00;99.90
9223;DHT22;7557;51.698;3.942;2023-03-15T00:52:49;6.00;99.90
9223;DHT22;7557;51.698;3.942;2023-03-15T00:55:18;6.00;99.90
9223;DHT22;7557;51.698;3.942;2023-03-15T00:57:46;6.00;99.90
9223;DHT22;7557;51.698;3.942;2023-03-15T01:00:16;6.10;99.90
9223;DHT22;7557;51.698;3.942;2023-03-15T01:02:44;6.10;99.90
9223;DHT22;7557;51.698;3.942;2023-03-15T01:05:12;6.00;99.90
9223;DHT22;7557;51.698;3.942;2023-03-15T01:07:41;5.90;99.90
9223;DHT22;7557;51.698;3.942;2023-03-15T01:10:11;5.80;99.90
9223;DHT22;7557;51.698;3.942;2023-03-15T01:12:39;5.80;99.90
9223;DHT22;7557;51.698;3.942;2023-03-15T01:15:07;5.70;99.90
9223;DHT22;7557;51.698;3.942;2023-03-15T01:17:36;5.60;99.90
9223;DHT22;7557;51.698;3.942;2023-03-15T01:20:04;5.50;99.90
9223;DHT22;7557;51.698;3.942;2023-03-15T01:22:31;5.40;99.90
9223;DHT22;7557;51.698;3.942;2023-03-15T01:25:00;5.40;99.90
9223;DHT22;7557;51.698;3.942;2023-03-15T01:27:27;5.30;99.90
9223;DHT22;7557;51.698;3.942;2023-03-15T01:29:54;5.20;99.90
9223;DHT22;7557;51.698;3.942;2023-03-15T01:32:21;5.20;99.90
9223;DHT22;7557;51.698;3.942;2023-03-15T01:34:49;5.10;99.90
9223;DHT22;7557;51.698;3.942;2023-03-15T01:37:16;5.10;99.90
9223;DHT22;7557;51.698;3.942;2023-03-15T01:39:43;5.10;99.90
9223;DHT22;7557;51.698;3.942;2023-03-15T01:42:11;5.10;99.90
9223;DHT22;7557;51.698;3.942;2023-03-15T01:44:53;5.10;99.90
9223;DHT22;7557;51.698;3.942;2023-03-15T01:47:21;5.10;99.90
9223;DHT22;7557;51.698;3.942;2023-03-15T01:49:54;5.10;99.90
9223;DHT22;7557;51.698;3.942;2023-03-15T01:52:25;5.00;99.90
9223;DHT22;7557;51.698;3.942;2023-03-15T01:54:57;5.00;99.90
9223;DHT22;7557;51.698;3.942;2023-03-15T01:57:31;4.90;99.90
9223;DHT22;7557;51.698;3.942;2023-03-15T02:00:05;4.90;99.90
9223;DHT22;7557;51.698;3.942;2023-03-15T02:02:37;4.80;99.90
9223;DHT22;7557;51.698;3.942;2023-03-15T02:05:08;4.80;99.90
9223;DHT22;7557;51.698;3.942;2023-03-15T02:07:38;4.70;99.90
9223;DHT22;7557;51.698;3.942;2023-03-15T02:10:09;4.70;99.90
9223;DHT22;7557;51.698;3.942;2023-03-15T02:12:42;4.70;99.90
9223;DHT22;7557;51.698;3.942;2023-03-15T02:15:12;4.70;99.90
9223;DHT22;7557;51.698;3.942;2023-03-15T02:17:44;4.70;99.90
9223;DHT22;7557;51.698;3.942;2023-03-15T02:20:22;4.70;99.90
9223;DHT22;7557;51.698;3.942;2023-03-15T02:22:54;4.70;99.90
9223;DHT22;7557;51.698;3.942;2023-03-15T02:25:29;4.70;99.90
9223;DHT22;7557;51.698;3.942;2023-03-15T02:28:01;4.80;99.90
9223;DHT22;7557;51.698;3.942;2023-03-15T02:30:29;4.80;99.90
9223;DHT22;7557;51.698;3.942;2023-03-15T02:32:57;4.90;99.90
9223;DHT22;7557;51.698;3.942;2023-03-15T02:35:27;4.90;99.90
9223;DHT22;7557;51.698;3.942;2023-03-15T02:37:54;5.00;99.90
9223;DHT22;7557;51.698;3.942;2023-03-15T02:40:23;5.00;99.90
9223;DHT22;7557;51.698;3.942;2023-03-15T02:42:54;5.00;99.90
9223;DHT22;7557;51.698;3.942;2023-03-15T02:45:25;5.00;99.90
9223;DHT22;7557;51.698;3.942;2023-03-15T02:47:53;5.10;99.90
9223;DHT22;7557;51.698;3.942;2023-03-15T02:50:20;5.00;99.90
9223;DHT22;7557;51.698;3.942;2023-03-15T02:52:48;5.00;99.90
9223;DHT22;7557;51.698;3.942;2023-03-15T02:55:17;5.00;99.90
9223;DHT22;7557;51.698;3.942;2023-03-15T02:57:46;5.00;99.90
9223;DHT22;7557;51.698;3.942;2023-03-15T03:00:14;5.10;99.90
9223;DHT22;7557;51.698;3.942;2023-03-15T03:02:45;5.00;99.90
9223;DHT22;7557;51.698;3.942;2023-03-15T03:05:14;5.00;99.90
9223;DHT22;7557;51.698;3.942;2023-03-15T03:07:42;5.00;99.90
9223;DHT22;7557;51.698;3.942;2023-03-15T03:10:11;5.00;99.90
9223;DHT22;7557;51.698;3.942;2023-03-15T03:12:38;5.00;99.90
9223;DHT22;7557;51.698;3.942;2023-03-15T03:15:06;5.00;99.90
9223;DHT22;7557;51.698;3.942;2023-03-15T03:17:34;5.00;99.90
9223;DHT22;7557;51.698;3.942;2023-03-15T03:20:04;5.10;99.90
9223;DHT22;7557;51.698;3.942;2023-03-15T03:22:33;5.00;99.90
9223;DHT22;7557;51.698;3.942;2023-03-15T03:25:00;5.10;99.90
9223;DHT22;7557;51.698;3.942;2023-03-15T03:27:28;5.10;99.90
9223;DHT22;7557;51.698;3.942;2023-03-15T03:29:55;5.10;99.90
9223;DHT22;7557;51.698;3.942;2023-03-15T03:32:22;5.00;99.90
9223;DHT22;7557;51.698;3.942;2023-03-15T03:34:49;5.00;99.90
9223;DHT22;7557;51.698;3.942;2023-03-15T03:37:18;5.00;99.90
9223;DHT22;7557;51.698;3.942;2023-03-15T03:39:45;5.10;99.90
9223;DHT22;7557;51.698;3.942;2023-03-15T03:42:13;5.00;99.90
9223;DHT22;7557;51.698;3.942;2023-03-15T03:44:40;5.00;99.90
9223;DHT22;7557;51.698;3.942;2023-03-15T03:47:07;5.00;99.90
9223;DHT22;7557;51.698;3.942;2023-03-15T03:49:34;5.00;99.90
9223;DHT22;7557;51.698;3.942;2023-03-15T03:52:01;4.90;99.90
9223;DHT22;7557;51.698;3.942;2023-03-15T03:54:30;4.90;99.90
9223;DHT22;7557;51.698;3.942;2023-03-15T03:56:57;4.90;99.90
9223;DHT22;7557;51.698;3.942;2023-03-15T03:59:24;4.90;99.90
9223;DHT22;7557;51.698;3.942;2023-03-15T04:01:52;4.90;99.90
9223;DHT22;7557;51.698;3.942;2023-03-15T04:04:19;4.90;99.90
9223;DHT22;7557;51.698;3.942;2023-03-15T04:06:46;5.00;99.90
9223;DHT22;7557;51.698;3.942;2023-03-15T04:09:15;5.00;99.90
9223;DHT22;7557;51.698;3.942;2023-03-15T04:11:44;5.10;99.90
9223;DHT22;7557;51.698;3.942;2023-03-15T04:14:12;5.10;99.90
9223;DHT22;7557;51.698;3.942;2023-03-15T04:16:40;5.00;99.90
9223;DHT22;7557;51.698;3.942;2023-03-15T04:19:07;5.00;99.90
9223;DHT22;7557;51.698;3.942;2023-03-15T04:21:34;5.00;99.90
9223;DHT22;7557;51.698;3.942;2023-03-15T04:24:01;5.00;99.90
9223;DHT22;7557;51.698;3.942;2023-03-15T04:26:29;5.00;99.90
9223;DHT22;7557;51.698;3.942;2023-03-15T04:28:58;5.00;99.90
9223;DHT22;7557;51.698;3.942;2023-03-15T04:31:25;5.00;99.90
9223;DHT22;7557;51.698;3.942;2023-03-15T04:33:52;5.00;99.90
9223;DHT22;7557;51.698;3.942;2023-03-15T04:36:20;5.00;99.90
9223;DHT22;7557;51.698;3.942;2023-03-15T04:38:48;5.00;99.90
9223;DHT22;7557;51.698;3.942;2023-03-15T04:41:16;4.90;99.90
9223;DHT22;7557;51.698;3.942;2023-03-15T04:43:44;4.70;99.90
9223;DHT22;7557;51.698;3.942;2023-03-15T04:46:12;4.70;99.90
9223;DHT22;7557;51.698;3.942;2023-03-15T04:48:39;4.70;99.90
9223;DHT22;7557;51.698;3.942;2023-03-15T04:51:06;4.60;99.90
9223;DHT22;7557;51.698;3.942;2023-03-15T04:53:34;4.60;99.90
9223;DHT22;7557;51.698;3.942;2023-03-15T04:56:01;4.50;99.90
9223;DHT22;7557;51.698;3.942;2023-03-15T04:58:28;4.40;99.90
9223;DHT22;7557;51.698;3.942;2023-03-15T05:00:55;4.40;99.90
9223;DHT22;7557;51.698;3.942;2023-03-15T05:03:24;4.30;99.90
9223;DHT22;7557;51.698;3.942;2023-03-15T05:05:54;4.30;99.90
9223;DHT22;7557;51.698;3.942;2023-03-15T05:08:21;4.40;99.90
9223;DHT22;7557;51.698;3.942;2023-03-15T05:10:48;4.40;99.90
9223;DHT22;7557;51.698;3.942;2023-03-15T05:13:16;4.40;99.90
9223;DHT22;7557;51.698;3.942;2023-03-15T05:15:45;4.40;99.90
9223;DHT22;7557;51.698;3.942;2023-03-15T05:18:12;4.40;99.90
9223;DHT22;7557;51.698;3.942;2023-03-15T05:20:41;4.30;99.90
9223;DHT22;7557;51.698;3.942;2023-03-15T05:23:08;4.30;99.90
9223;DHT22;7557;51.698;3.942;2023-03-15T05:25:35;4.20;99.90
9223;DHT22;7557;51.698;3.942;2023-03-15T05:28:02;4.20;99.90
9223;DHT22;7557;51.698;3.942;2023-03-15T05:30:29;4.20;99.90
9223;DHT22;7557;51.698;3.942;2023-03-15T05:32:56;4.20;99.90
9223;DHT22;7557;51.698;3.942;2023-03-15T05:35:24;4.30;99.90
9223;DHT22;7557;51.698;3.942;2023-03-15T05:37:54;4.30;99.90
9223;DHT22;7557;51.698;3.942;2023-03-15T05:40:21;4.30;99.90
9223;DHT22;7557;51.698;3.942;2023-03-15T05:42:48;4.40;99.90
9223;DHT22;7557;51.698;3.942;2023-03-15T05:45:15;4.40;99.90
9223;DHT22;7557;51.698;3.942;2023-03-15T05:47:42;4.40;99.90
9223;DHT22;7557;51.698;3.942;2023-03-15T05:50:10;4.50;99.90
9223;DHT22;7557;51.698;3.942;2023-03-15T05:52:37;4.50;99.90
9223;DHT22;7557;51.698;3.942;2023-03-15T05:55:06;4.60;99.90
9223;DHT22;7557;51.698;3.942;2023-03-15T05:57:33;4.60;99.90
9223;DHT22;7557;51.698;3.942;2023-03-15T06:00:00;4.70;99.90
9223;DHT22;7557;51.698;3.942;2023-03-15T06:02:29;4.80;99.90
9223;DHT22;7557;51.698;3.942;2023-03-15T06:04:56;4.90;99.90
9223;DHT22;7557;51.698;3.942;2023-03-15T06:07:23;4.90;99.90
9223;DHT22;7557;51.698;3.942;2023-03-15T06:09:50;4.60;99.90
9223;DHT22;7557;51.698;3.942;2023-03-15T06:12:19;4.40;99.90
9223;DHT22;7557;51.698;3.942;2023-03-15T06:14:46;4.20;99.90
9223;DHT22;7557;51.698;3.942;2023-03-15T06:17:13;4.10;99.90
9223;DHT22;7557;51.698;3.942;2023-03-15T06:19:40;4.20;99.90
9223;DHT22;7557;51.698;3.942;2023-03-15T06:22:07;4.40;99.90
9223;DHT22;7557;51.698;3.942;2023-03-15T06:24:34;4.60;99.90
9223;DHT22;7557;51.698;3.942;2023-03-15T06:27:01;4.80;99.90
9223;DHT22;7557;51.698;3.942;2023-03-15T06:29:30;4.90;99.90
9223;DHT22;7557;51.698;3.942;2023-03-15T06:31:57;4.90;99.90
9223;DHT22;7557;51.698;3.942;2023-03-15T06:34:24;5.00;99.90
9223;DHT22;7557;51.698;3.942;2023-03-15T06:36:51;5.10;99.90
9223;DHT22;7557;51.698;3.942;2023-03-15T06:39:18;5.20;99.90
9223;DHT22;7557;51.698;3.942;2023-03-15T06:41:45;5.20;99.90
9223;DHT22;7557;51.698;3.942;2023-03-15T06:44:12;5.20;99.90
9223;DHT22;7557;51.698;3.942;2023-03-15T06:46:41;5.20;99.90
9223;DHT22;7557;51.698;3.942;2023-03-15T06:49:08;5.30;99.90
9223;DHT22;7557;51.698;3.942;2023-03-15T06:51:35;5.30;99.90
9223;DHT22;7557;51.698;3.942;2023-03-15T06:54:03;5.30;99.90
9223;DHT22;7557;51.698;3.942;2023-03-15T06:56:30;5.30;99.90
9223;DHT22;7557;51.698;3.942;2023-03-15T06:59:02;5.20;99.90
9223;DHT22;7557;51.698;3.942;2023-03-15T07:01:29;5.00;99.90
9223;DHT22;7557;51.698;3.942;2023-03-15T07:03:57;4.80;99.90
9223;DHT22;7557;51.698;3.942;2023-03-15T07:06:24;4.70;99.90
9223;DHT22;7557;51.698;3.942;2023-03-15T07:08:52;4.70;99.90
9223;DHT22;7557;51.698;3.942;2023-03-15T07:11:20;4.70;99.90
9223;DHT22;7557;51.698;3.942;2023-03-15T07:13:47;4.80;99.90
9223;DHT22;7557;51.698;3.942;2023-03-15T07:16:14;4.80;99.90
9223;DHT22;7557;51.698;3.942;2023-03-15T07:18:41;4.90;99.90
9223;DHT22;7557;51.698;3.942;2023-03-15T07:21:09;5.00;99.90
9223;DHT22;7557;51.698;3.942;2023-03-15T07:23:36;5.10;99.90
9223;DHT22;7557;51.698;3.942;2023-03-15T07:26:04;5.20;99.90
9223;DHT22;7557;51.698;3.942;2023-03-15T07:28:31;5.20;99.90
9223;DHT22;7557;51.698;3.942;2023-03-15T07:30:59;5.20;99.90
9223;DHT22;7557;51.698;3.942;2023-03-15T07:33:28;5.30;99.90
9223;DHT22;7557;51.698;3.942;2023-03-15T07:35:56;5.30;99.90
9223;DHT22;7557;51.698;3.942;2023-03-15T07:38:26;5.40;99.90
9223;DHT22;7557;51.698;3.942;2023-03-15T07:40:54;5.40;99.90
9223;DHT22;7557;51.698;3.942;2023-03-15T07:43:21;5.50;99.90
9223;DHT22;7557;51.698;3.942;2023-03-15T07:45:48;5.50;99.90
9223;DHT22;7557;51.698;3.942;2023-03-15T07:48:16;5.50;99.90
9223;DHT22;7557;51.698;3.942;2023-03-15T07:50:44;5.60;99.90
9223;DHT22;7557;51.698;3.942;2023-03-15T07:53:11;5.70;99.90
9223;DHT22;7557;51.698;3.942;2023-03-15T07:55:42;5.80;99.90
9223;DHT22;7557;51.698;3.942;2023-03-15T07:58:09;5.80;99.90
9223;DHT22;7557;51.698;3.942;2023-03-15T08:00:37;5.90;99.90
9223;DHT22;7557;51.698;3.942;2023-03-15T08:03:04;6.00;99.90
9223;DHT22;7557;51.698;3.942;2023-03-15T08:05:32;6.00;99.90
9223;DHT22;7557;51.698;3.942;2023-03-15T08:07:59;6.10;99.90
9223;DHT22;7557;51.698;3.942;2023-03-15T08:10:26;6.20;99.90
9223;DHT22;7557;51.698;3.942;2023-03-15T08:12:55;6.30;99.90
9223;DHT22;7557;51.698;3.942;2023-03-15T08:15:22;6.50;99.90
9223;DHT22;7557;51.698;3.942;2023-03-15T08:17:49;6.60;99.90
9223;DHT22;7557;51.698;3.942;2023-03-15T08:20:16;6.70;99.90
9223;DHT22;7557;51.698;3.942;2023-03-15T08:22:44;6.80;99.90
9223;DHT22;7557;51.698;3.942;2023-03-15T08:25:13;6.90;99.90
9223;DHT22;7557;51.698;3.942;2023-03-15T08:27:41;6.90;99.90
9223;DHT22;7557;51.698;3.942;2023-03-15T08:30:12;6.80;99.90
9223;DHT22;7557;51.698;3.942;2023-03-15T08:32:40;6.90;99.90
9223;DHT22;7557;51.698;3.942;2023-03-15T08:35:08;7.10;99.90
9223;DHT22;7557;51.698;3.942;2023-03-15T08:37:35;7.40;99.90
9223;DHT22;7557;51.698;3.942;2023-03-15T08:40:02;7.90;99.90
9223;DHT22;7557;51.698;3.942;2023-03-15T08:42:34;8.30;99.90
9223;DHT22;7557;51.698;3.942;2023-03-15T08:45:01;8.60;99.90
9223;DHT22;7557;51.698;3.942;2023-03-15T08:47:30;9.00;99.90
9223;DHT22;7557;51.698;3.942;2023-03-15T08:49:59;9.20;99.90
9223;DHT22;7557;51.698;3.942;2023-03-15T08:52:29;9.50;99.90
9223;DHT22;7557;51.698;3.942;2023-03-15T08:54:56;9.80;99.90
9223;DHT22;7557;51.698;3.942;2023-03-15T08:57:23;10.00;99.90
9223;DHT22;7557;51.698;3.942;2023-03-15T08:59:51;10.20;99.90
9223;DHT22;7557;51.698;3.942;2023-03-15T09:02:18;10.70;99.90
9223;DHT22;7557;51.698;3.942;2023-03-15T09:04:48;11.00;99.90
9223;DHT22;7557;51.698;3.942;2023-03-15T09:07:15;11.30;99.90
9223;DHT22;7557;51.698;3.942;2023-03-15T09:09:42;11.60;99.90
9223;DHT22;7557;51.698;3.942;2023-03-15T09:12:13;11.90;99.90
9223;DHT22;7557;51.698;3.942;2023-03-15T09:14:40;12.10;99.90
9223;DHT22;7557;51.698;3.942;2023-03-15T09:17:07;12.20;99.90
9223;DHT22;7557;51.698;3.942;2023-03-15T09:19:36;12.50;99.90
9223;DHT22;7557;51.698;3.942;2023-03-15T09:22:05;12.50;99.90
9223;DHT22;7557;51.698;3.942;2023-03-15T09:24:32;12.70;99.90
9223;DHT22;7557;51.698;3.942;2023-03-15T09:26:59;12.90;99.90
9223;DHT22;7557;51.698;3.942;2023-03-15T09:29:26;13.30;99.90
9223;DHT22;7557;51.698;3.942;2023-03-15T09:31:54;13.70;99.90
9223;DHT22;7557;51.698;3.942;2023-03-15T09:34:21;13.90;99.90
9223;DHT22;7557;51.698;3.942;2023-03-15T09:36:48;14.00;99.90
9223;DHT22;7557;51.698;3.942;2023-03-15T09:39:20;14.30;99.90
9223;DHT22;7557;51.698;3.942;2023-03-15T09:41:50;14.70;99.90
9223;DHT22;7557;51.698;3.942;2023-03-15T09:44:34;14.80;99.90
9223;DHT22;7557;51.698;3.942;2023-03-15T09:47:15;14.90;99.90
9223;DHT22;7557;51.698;3.942;2023-03-15T09:49:48;15.10;99.90
9223;DHT22;7557;51.698;3.942;2023-03-15T09:52:27;15.30;99.90
9223;DHT22;7557;51.698;3.942;2023-03-15T09:54:59;15.50;99.90
9223;DHT22;7557;51.698;3.942;2023-03-15T09:57:36;15.40;99.90
9223;DHT22;7557;51.698;3.942;2023-03-15T10:00:06;15.30;99.90
9223;DHT22;7557;51.698;3.942;2023-03-15T10:02:42;15.40;99.90
9223;DHT22;7557;51.698;3.942;2023-03-15T10:05:15;15.50;99.90
9223;DHT22;7557;51.698;3.942;2023-03-15T10:07:45;15.50;99.90
9223;DHT22;7557;51.698;3.942;2023-03-15T10:10:16;15.50;99.90
9223;DHT22;7557;51.698;3.942;2023-03-15T10:12:48;15.60;99.90
9223;DHT22;7557;51.698;3.942;2023-03-15T10:15:25;15.50;99.90
9223;DHT22;7557;51.698;3.942;2023-03-15T10:18:15;15.50;99.90
9223;DHT22;7557;51.698;3.942;2023-03-15T10:20:54;15.60;99.90
9223;DHT22;7557;51.698;3.942;2023-03-15T10:23:31;15.70;99.90
9223;DHT22;7557;51.698;3.942;2023-03-15T10:26:05;15.70;99.90
9223;DHT22;7557;51.698;3.942;2023-03-15T10:28:34;15.70;99.90
9223;DHT22;7557;51.698;3.942;2023-03-15T10:31:10;15.60;99.90
9223;DHT22;7557;51.698;3.942;2023-03-15T10:33:38;15.30;99.90
9223;DHT22;7557;51.698;3.942;2023-03-15T10:36:14;14.90;99.90
9223;DHT22;7557;51.698;3.942;2023-03-15T10:38:42;14.70;99.90
9223;DHT22;7557;51.698;3.942;2023-03-15T10:41:13;14.70;99.90
9223;DHT22;7557;51.698;3.942;2023-03-15T10:43:40;15.00;99.90
9223;DHT22;7557;51.698;3.942;2023-03-15T10:46:24;15.30;99.90
9223;DHT22;7557;51.698;3.942;2023-03-15T10:48:55;15.40;99.90
9223;DHT22;7557;51.698;3.942;2023-03-15T10:51:25;15.50;99.90
9223;DHT22;7557;51.698;3.942;2023-03-15T10:53:55;15.60;99.90
9223;DHT22;7557;51.698;3.942;2023-03-15T10:56:26;15.90;99.90
9223;DHT22;7557;51.698;3.942;2023-03-15T10:58:55;15.90;99.90
9223;DHT22;7557;51.698;3.942;2023-03-15T11:01:25;15.90;99.90
9223;DHT22;7557;51.698;3.942;2023-03-15T11:04:11;15.90;99.90
9223;DHT22;7557;51.698;3.942;2023-03-15T11:06:41;16.10;99.90
9223;DHT22;7557;51.698;3.942;2023-03-15T11:09:11;16.10;99.90
9223;DHT22;7557;51.698;3.942;2023-03-15T11:11:53;16.20;99.90
9223;DHT22;7557;51.698;3.942;2023-03-15T11:14:21;16.20;99.60
9223;DHT22;7557;51.698;3.942;2023-03-15T11:16:50;16.20;99.60
9223;DHT22;7557;51.698;3.942;2023-03-15T11:19:19;16.20;99.40
9223;DHT22;7557;51.698;3.942;2023-03-15T11:21:49;16.10;99.40
9223;DHT22;7557;51.698;3.942;2023-03-15T11:24:25;16.10;99.00
9223;DHT22;7557;51.698;3.942;2023-03-15T11:26:56;16.20;99.00
9223;DHT22;7557;51.698;3.942;2023-03-15T11:29:27;16.10;99.20
9223;DHT22;7557;51.698;3.942;2023-03-15T11:31:57;16.10;99.30
9223;DHT22;7557;51.698;3.942;2023-03-15T11:34:37;16.10;98.70
9223;DHT22;7557;51.698;3.942;2023-03-15T11:37:12;16.00;98.20
9223;DHT22;7557;51.698;3.942;2023-03-15T11:39:44;16.00;98.00
9223;DHT22;7557;51.698;3.942;2023-03-15T11:42:21;16.00;98.40
9223;DHT22;7557;51.698;3.942;2023-03-15T11:44:52;15.90;98.00
9223;DHT22;7557;51.698;3.942;2023-03-15T11:47:29;16.00;98.30
9223;DHT22;7557;51.698;3.942;2023-03-15T11:49:58;16.00;98.00
9223;DHT22;7557;51.698;3.942;2023-03-15T11:52:27;15.90;98.20
9223;DHT22;7557;51.698;3.942;2023-03-15T11:54:57;16.00;98.40
9223;DHT22;7557;51.698;3.942;2023-03-15T11:57:41;16.00;98.30
9223;DHT22;7557;51.698;3.942;2023-03-15T12:03:39;15.80;98.60
9223;DHT22;7557;51.698;3.942;2023-03-15T12:06:34;15.70;98.60
9223;DHT22;7557;51.698;3.942;2023-03-15T12:09:46;15.40;98.80
9223;DHT22;7557;51.698;3.942;2023-03-15T12:11:56;15.00;99.40
9223;DHT22;7557;51.698;3.942;2023-03-15T12:14:28;14.70;99.30
9223;DHT22;7557;51.698;3.942;2023-03-15T12:17:35;14.30;99.90
9223;DHT22;7557;51.698;3.942;2023-03-15T12:20:07;14.30;99.90
9223;DHT22;7557;51.698;3.942;2023-03-15T12:22:35;14.30;99.90
9223;DHT22;7557;51.698;3.942;2023-03-15T12:25:10;14.40;99.90
9223;DHT22;7557;51.698;3.942;2023-03-15T12:27:40;14.40;99.90
9223;DHT22;7557;51.698;3.942;2023-03-15T12:30:19;14.50;99.90
9223;DHT22;7557;51.698;3.942;2023-03-15T12:32:50;14.50;99.90
9223;DHT22;7557;51.698;3.942;2023-03-15T12:35:20;14.60;99.90
9223;DHT22;7557;51.698;3.942;2023-03-15T12:37:49;14.60;99.70
9223;DHT22;7557;51.698;3.942;2023-03-15T12:40:39;14.50;99.90
9223;DHT22;7557;51.698;3.942;2023-03-15T12:43:13;14.40;99.80
9223;DHT22;7557;51.698;3.942;2023-03-15T12:45:43;14.20;99.90
9223;DHT22;7557;51.698;3.942;2023-03-15T12:48:25;14.20;99.90
9223;DHT22;7557;51.698;3.942;2023-03-15T12:51:01;14.10;99.90
9223;DHT22;7557;51.698;3.942;2023-03-15T12:53:50;14.00;99.90
9223;DHT22;7557;51.698;3.942;2023-03-15T12:56:33;13.90;99.90
9223;DHT22;7557;51.698;3.942;2023-03-15T12:59:05;13.80;99.90
9223;DHT22;7557;51.698;3.942;2023-03-15T13:01:37;13.60;99.90
9223;DHT22;7557;51.698;3.942;2023-03-15T13:04:09;13.40;99.90
9223;DHT22;7557;51.698;3.942;2023-03-15T13:06:57;13.50;99.90
9223;DHT22;7557;51.698;3.942;2023-03-15T13:12:27;13.50;99.90
9223;DHT22;7557;51.698;3.942;2023-03-15T13:14:59;13.40;99.90
9223;DHT22;7557;51.698;3.942;2023-03-15T13:17:35;13.30;99.90
9223;DHT22;7557;51.698;3.942;2023-03-15T13:20:16;13.20;99.90
9223;DHT22;7557;51.698;3.942;2023-03-15T13:22:49;13.20;99.90
9223;DHT22;7557;51.698;3.942;2023-03-15T13:25:24;13.10;99.90
9223;DHT22;7557;51.698;3.942;2023-03-15T13:27:54;13.10;99.90
9223;DHT22;7557;51.698;3.942;2023-03-15T13:30:33;13.10;99.90
9223;DHT22;7557;51.698;3.942;2023-03-15T13:33:04;13.20;99.90
9223;DHT22;7557;51.698;3.942;2023-03-15T13:35:32;13.10;99.90
9223;DHT22;7557;51.698;3.942;2023-03-15T13:38:05;13.10;99.90
9223;DHT22;7557;51.698;3.942;2023-03-15T13:40:33;13.00;99.90
9223;DHT22;7557;51.698;3.942;2023-03-15T13:43:00;12.90;99.90
9223;DHT22;7557;51.698;3.942;2023-03-15T13:45:27;12.90;99.90
9223;DHT22;7557;51.698;3.942;2023-03-15T13:47:54;12.80;99.90
9223;DHT22;7557;51.698;3.942;2023-03-15T13:50:23;12.70;99.90
9223;DHT22;7557;51.698;3.942;2023-03-15T13:52:50;12.70;99.90
9223;DHT22;7557;51.698;3.942;2023-03-15T13:55:20;12.70;99.90
9223;DHT22;7557;51.698;3.942;2023-03-15T13:57:52;12.70;99.90
9223;DHT22;7557;51.698;3.942;2023-03-15T14:00:25;12.80;99.70
9223;DHT22;7557;51.698;3.942;2023-03-15T14:02:55;12.80;99.90
9223;DHT22;7557;51.698;3.942;2023-03-15T14:05:27;12.80;99.90
9223;DHT22;7557;51.698;3.942;2023-03-15T14:07:57;12.80;99.90
9223;DHT22;7557;51.698;3.942;2023-03-15T14:10:29;12.70;99.90
9223;DHT22;7557;51.698;3.942;2023-03-15T14:12:58;12.70;99.90
9223;DHT22;7557;51.698;3.942;2023-03-15T14:15:42;12.60;99.90
9223;DHT22;7557;51.698;3.942;2023-03-15T14:18:16;12.40;99.90
9223;DHT22;7557;51.698;3.942;2023-03-15T14:20:52;12.40;99.90
9223;DHT22;7557;51.698;3.942;2023-03-15T14:23:22;12.50;99.90
9223;DHT22;7557;51.698;3.942;2023-03-15T14:25:51;12.40;99.90
9223;DHT22;7557;51.698;3.942;2023-03-15T14:28:19;12.40;99.90
9223;DHT22;7557;51.698;3.942;2023-03-15T14:30:53;12.40;99.90
9223;DHT22;7557;51.698;3.942;2023-03-15T14:33:30;12.40;99.90
9223;DHT22;7557;51.698;3.942;2023-03-15T14:36:01;12.30;99.90
9223;DHT22;7557;51.698;3.942;2023-03-15T14:38:34;12.30;99.90
9223;DHT22;7557;51.698;3.942;2023-03-15T14:41:21;12.30;99.90
9223;DHT22;7557;51.698;3.942;2023-03-15T14:43:48;12.30;99.90
9223;DHT22;7557;51.698;3.942;2023-03-15T14:46:15;12.30;99.90
9223;DHT22;7557;51.698;3.942;2023-03-15T14:48:43;12.20;99.90
9223;DHT22;7557;51.698;3.942;2023-03-15T14:51:14;12.10;99.90
9223;DHT22;7557;51.698;3.942;2023-03-15T14:53:42;12.00;99.90
9223;DHT22;7557;51.698;3.942;2023-03-15T14:56:10;11.90;99.90
9223;DHT22;7557;51.698;3.942;2023-03-15T14:58:38;11.80;99.90
9223;DHT22;7557;51.698;3.942;2023-03-15T15:01:06;11.80;99.90
9223;DHT22;7557;51.698;3.942;2023-03-15T15:03:36;11.80;99.90
9223;DHT22;7557;51.698;3.942;2023-03-15T15:06:05;11.70;99.90
9223;DHT22;7557;51.698;3.942;2023-03-15T15:08:35;11.70;99.90
9223;DHT22;7557;51.698;3.942;2023-03-15T15:11:05;11.60;99.90
9223;DHT22;7557;51.698;3.942;2023-03-15T15:13:34;11.60;99.90
9223;DHT22;7557;51.698;3.942;2023-03-15T15:16:01;11.50;99.90
9223;DHT22;7557;51.698;3.942;2023-03-15T15:18:30;11.50;99.90
9223;DHT22;7557;51.698;3.942;2023-03-15T15:20:59;11.40;99.90
9223;DHT22;7557;51.698;3.942;2023-03-15T15:23:29;11.40;99.90
9223;DHT22;7557;51.698;3.942;2023-03-15T15:25:59;11.40;99.90
9223;DHT22;7557;51.698;3.942;2023-03-15T15:28:28;11.30;99.90
9223;DHT22;7557;51.698;3.942;2023-03-15T15:30:56;11.30;99.90
9223;DHT22;7557;51.698;3.942;2023-03-15T15:33:23;11.30;99.90
9223;DHT22;7557;51.698;3.942;2023-03-15T15:35:51;11.30;99.90
9223;DHT22;7557;51.698;3.942;2023-03-15T15:38:19;11.20;99.90
9223;DHT22;7557;51.698;3.942;2023-03-15T15:40:47;11.20;99.90
9223;DHT22;7557;51.698;3.942;2023-03-15T15:43:16;11.10;99.90
9223;DHT22;7557;51.698;3.942;2023-03-15T15:45:43;11.10;99.90
9223;DHT22;7557;51.698;3.942;2023-03-15T15:48:10;11.00;99.90
9223;DHT22;7557;51.698;3.942;2023-03-15T15:50:37;10.90;99.90
9223;DHT22;7557;51.698;3.942;2023-03-15T15:53:05;10.90;99.90
9223;DHT22;7557;51.698;3.942;2023-03-15T15:55:34;10.80;99.90
9223;DHT22;7557;51.698;3.942;2023-03-15T15:58:04;10.80;99.90
9223;DHT22;7557;51.698;3.942;2023-03-15T16:00:34;10.70;99.90
9223;DHT22;7557;51.698;3.942;2023-03-15T16:03:01;10.60;99.90
9223;DHT22;7557;51.698;3.942;2023-03-15T16:05:29;10.60;99.90
9223;DHT22;7557;51.698;3.942;2023-03-15T16:08:00;10.60;99.90
9223;DHT22;7557;51.698;3.942;2023-03-15T16:10:29;10.60;99.90
9223;DHT22;7557;51.698;3.942;2023-03-15T16:13:00;10.60;99.90
9223;DHT22;7557;51.698;3.942;2023-03-15T16:15:28;10.60;99.90
9223;DHT22;7557;51.698;3.942;2023-03-15T16:17:56;10.60;99.90
9223;DHT22;7557;51.698;3.942;2023-03-15T16:20:23;10.50;99.90
9223;DHT22;7557;51.698;3.942;2023-03-15T16:22:56;10.40;99.90
9223;DHT22;7557;51.698;3.942;2023-03-15T16:25:26;10.30;99.90
9223;DHT22;7557;51.698;3.942;2023-03-15T16:27:55;10.30;99.90
9223;DHT22;7557;51.698;3.942;2023-03-15T16:30:24;10.20;99.90
9223;DHT22;7557;51.698;3.942;2023-03-15T16:32:51;10.30;99.90